Ward Prairie, Texas
Current Conditions -  °F | °C
As of 2:53 PM on Friday 28 Nov 2014 (Local Time) from KCRS Reporting Station
Clear Clear  
Wind Chill: 70°   Ceiling: Unl
Heat Index: 70°   Visibility: 10mi
Dew Point: 50°   Wind: 21mph
Humidity: 49%   Direction: 190°S
Pressure: 30.11"   Gusts: 30mph
Location:  31.8162°N, 96.1239°W
Report Text: KCRS 282053Z AUTO 19018G26KT 10SM CLR 21/10 A3011 RMK AO2 PK WND 21027/1954 SLP195 60000 T02110100 56038
Loading
Personal Weather Stations






























Interactive Weather Map New forecast layout! Learn more

10-Day Weather Forecast

Advertisements
Track Severe Weather on mobile